sensor_id;sensor_type;location;lat;lon;timestamp;pressure;altitude;pressure_sealevel;temperature;humidity
48041;BME280;33815;48.386;11.738;2023-09-19T00:00:45;96221.53;;;13.21;100.00
48041;BME280;33815;48.386;11.738;2023-09-19T00:03:12;96223.97;;;13.23;100.00
48041;BME280;33815;48.386;11.738;2023-09-19T00:05:38;96216.75;;;13.25;100.00
48041;BME280;33815;48.386;11.738;2023-09-19T00:08:03;96220.84;;;13.27;100.00
48041;BME280;33815;48.386;11.738;2023-09-19T00:10:29;96222.28;;;13.30;100.00
48041;BME280;33815;48.386;11.738;2023-09-19T00:13:00;96222.28;;;13.30;100.00
48041;BME280;33815;48.386;11.738;2023-09-19T00:15:30;96229.50;;;13.28;100.00
48041;BME280;33815;48.386;11.738;2023-09-19T00:17:58;96212.69;;;13.22;100.00
48041;BME280;33815;48.386;11.738;2023-09-19T00:20:24;96222.97;;;13.24;100.00
48041;BME280;33815;48.386;11.738;2023-09-19T00:22:50;96217.13;;;13.22;100.00
48041;BME280;33815;48.386;11.738;2023-09-19T00:25:19;96211.22;;;13.19;100.00
48041;BME280;33815;48.386;11.738;2023-09-19T00:27:45;96210.06;;;13.22;100.00
48041;BME280;33815;48.386;11.738;2023-09-19T00:30:15;96201.06;;;13.25;100.00
48041;BME280;33815;48.386;11.738;2023-09-19T00:32:49;96201.88;;;13.25;100.00
48041;BME280;33815;48.386;11.738;2023-09-19T00:35:17;96201.59;;;13.20;100.00
48041;BME280;33815;48.386;11.738;2023-09-19T00:37:42;96209.63;;;13.18;100.00
48041;BME280;33815;48.386;11.738;2023-09-19T00:40:09;96209.78;;;13.17;100.00
48041;BME280;33815;48.386;11.738;2023-09-19T00:42:41;96208.34;;;13.14;100.00
48041;BME280;33815;48.386;11.738;2023-09-19T00:45:08;96208.97;;;13.16;100.00
48041;BME280;33815;48.386;11.738;2023-09-19T00:47:50;96208.97;;;13.16;100.00
48041;BME280;33815;48.386;11.738;2023-09-19T00:50:18;96215.31;;;13.22;100.00
48041;BME280;33815;48.386;11.738;2023-09-19T00:52:44;96203.75;;;13.16;100.00
48041;BME280;33815;48.386;11.738;2023-09-19T00:55:11;96225.78;;;13.22;100.00
48041;BME280;33815;48.386;11.738;2023-09-19T00:57:38;96214.31;;;13.23;100.00
48041;BME280;33815;48.386;11.738;2023-09-19T01:00:06;96223.63;;;13.26;100.00
48041;BME280;33815;48.386;11.738;2023-09-19T01:02:33;96235.50;;;13.36;100.00
48041;BME280;33815;48.386;11.738;2023-09-19T01:04:59;96213.44;;;13.31;100.00
48041;BME280;33815;48.386;11.738;2023-09-19T01:07:26;96224.78;;;13.46;100.00
48041;BME280;33815;48.386;11.738;2023-09-19T01:09:55;96225.88;;;13.52;100.00
48041;BME280;33815;48.386;11.738;2023-09-19T01:12:29;96230.94;;;13.53;100.00
48041;BME280;33815;48.386;11.738;2023-09-19T01:14:59;96238.97;;;13.52;100.00
48041;BME280;33815;48.386;11.738;2023-09-19T01:17:33;96242.94;;;13.48;100.00
48041;BME280;33815;48.386;11.738;2023-09-19T01:20:15;96239.91;;;13.59;100.00
48041;BME280;33815;48.386;11.738;2023-09-19T01:26:05;96241.06;;;13.57;100.00
48041;BME280;33815;48.386;11.738;2023-09-19T01:31:09;96251.00;;;13.61;100.00
48041;BME280;33815;48.386;11.738;2023-09-19T01:33:59;96239.47;;;13.70;100.00
48041;BME280;33815;48.386;11.738;2023-09-19T01:36:29;96253.31;;;13.94;100.00
48041;BME280;33815;48.386;11.738;2023-09-19T01:38:55;96253.88;;;14.04;100.00
48041;BME280;33815;48.386;11.738;2023-09-19T01:41:33;96247.28;;;14.09;100.00
48041;BME280;33815;48.386;11.738;2023-09-19T01:44:02;96255.78;;;14.26;100.00
48041;BME280;33815;48.386;11.738;2023-09-19T01:46:35;96254.84;;;14.33;100.00
48041;BME280;33815;48.386;11.738;2023-09-19T01:52:10;96250.97;;;14.44;100.00
48041;BME280;33815;48.386;11.738;2023-09-19T01:54:52;96246.09;;;14.56;100.00
48041;BME280;33815;48.386;11.738;2023-09-19T01:57:28;96262.19;;;14.68;100.00
48041;BME280;33815;48.386;11.738;2023-09-19T02:00:00;96257.63;;;14.77;100.00
48041;BME280;33815;48.386;11.738;2023-09-19T02:02:35;96261.25;;;14.76;100.00
48041;BME280;33815;48.386;11.738;2023-09-19T02:05:02;96242.72;;;14.77;100.00
48041;BME280;33815;48.386;11.738;2023-09-19T02:07:29;96256.97;;;14.89;100.00
48041;BME280;33815;48.386;11.738;2023-09-19T02:09:57;96264.72;;;14.98;100.00
48041;BME280;33815;48.386;11.738;2023-09-19T02:12:22;96271.78;;;14.97;100.00
48041;BME280;33815;48.386;11.738;2023-09-19T02:14:48;96268.31;;;15.12;100.00
48041;BME280;33815;48.386;11.738;2023-09-19T02:17:13;96260.72;;;15.02;100.00
48041;BME280;33815;48.386;11.738;2023-09-19T02:19:38;96255.28;;;15.03;100.00
48041;BME280;33815;48.386;11.738;2023-09-19T02:22:04;96258.38;;;15.07;100.00
48041;BME280;33815;48.386;11.738;2023-09-19T02:24:35;96249.00;;;15.19;100.00
48041;BME280;33815;48.386;11.738;2023-09-19T02:27:00;96241.13;;;15.19;100.00
48041;BME280;33815;48.386;11.738;2023-09-19T02:29:29;96255.75;;;15.29;100.00
48041;BME280;33815;48.386;11.738;2023-09-19T02:31:55;96240.13;;;15.20;100.00
48041;BME280;33815;48.386;11.738;2023-09-19T02:34:21;96260.75;;;15.45;100.00
48041;BME280;33815;48.386;11.738;2023-09-19T02:36:46;96249.50;;;15.30;100.00
48041;BME280;33815;48.386;11.738;2023-09-19T02:39:12;96259.56;;;15.48;100.00
48041;BME280;33815;48.386;11.738;2023-09-19T02:41:37;96264.63;;;15.49;100.00
48041;BME280;33815;48.386;11.738;2023-09-19T02:44:03;96259.84;;;15.59;100.00
48041;BME280;33815;48.386;11.738;2023-09-19T02:46:32;96267.72;;;15.59;100.00
48041;BME280;33815;48.386;11.738;2023-09-19T02:48:57;96261.94;;;15.64;100.00
48041;BME280;33815;48.386;11.738;2023-09-19T02:51:23;96258.47;;;15.64;100.00
48041;BME280;33815;48.386;11.738;2023-09-19T02:53:49;96262.13;;;15.63;100.00
48041;BME280;33815;48.386;11.738;2023-09-19T02:56:17;96277.50;;;15.66;100.00
48041;BME280;33815;48.386;11.738;2023-09-19T02:58:43;96285.19;;;15.67;100.00
48041;BME280;33815;48.386;11.738;2023-09-19T03:01:12;96286.63;;;15.70;100.00
48041;BME280;33815;48.386;11.738;2023-09-19T03:03:38;96269.06;;;15.49;100.00
48041;BME280;33815;48.386;11.738;2023-09-19T03:06:07;96276.31;;;15.47;100.00
48041;BME280;33815;48.386;11.738;2023-09-19T03:08:34;96283.50;;;15.38;100.00
48041;BME280;33815;48.386;11.738;2023-09-19T03:11:03;96279.38;;;15.29;100.00
48041;BME280;33815;48.386;11.738;2023-09-19T03:13:28;96272.31;;;15.29;100.00
48041;BME280;33815;48.386;11.738;2023-09-19T03:15:56;96279.13;;;15.23;100.00
48041;BME280;33815;48.386;11.738;2023-09-19T03:18:26;96281.38;;;15.27;100.00
48041;BME280;33815;48.386;11.738;2023-09-19T03:20:57;96281.97;;;15.22;100.00
48041;BME280;33815;48.386;11.738;2023-09-19T03:23:26;96282.69;;;15.16;100.00
48041;BME280;33815;48.386;11.738;2023-09-19T03:25:52;96291.13;;;15.11;100.00
48041;BME280;33815;48.386;11.738;2023-09-19T03:28:18;96284.16;;;15.03;100.00
48041;BME280;33815;48.386;11.738;2023-09-19T03:30:43;96288.22;;;15.06;100.00
48041;BME280;33815;48.386;11.738;2023-09-19T03:33:09;96289.88;;;15.07;100.00
48041;BME280;33815;48.386;11.738;2023-09-19T03:35:37;96291.63;;;15.00;100.00
48041;BME280;33815;48.386;11.738;2023-09-19T03:38:03;96285.28;;;14.94;100.00
48041;BME280;33815;48.386;11.738;2023-09-19T03:40:29;96293.09;;;15.09;100.00
48041;BME280;33815;48.386;11.738;2023-09-19T03:42:54;96289.31;;;15.12;100.00
48041;BME280;33815;48.386;11.738;2023-09-19T03:45:20;96289.88;;;15.07;100.00
48041;BME280;33815;48.386;11.738;2023-09-19T03:47:45;96301.34;;;15.06;100.00
48041;BME280;33815;48.386;11.738;2023-09-19T03:50:13;96294.25;;;15.00;100.00
48041;BME280;33815;48.386;11.738;2023-09-19T03:52:45;96312.97;;;14.97;100.00
48041;BME280;33815;48.386;11.738;2023-09-19T03:55:11;96307.16;;;15.01;100.00
48041;BME280;33815;48.386;11.738;2023-09-19T03:57:37;96309.72;;;14.95;100.00
48041;BME280;33815;48.386;11.738;2023-09-19T04:00:03;96315.59;;;14.97;100.00
48041;BME280;33815;48.386;11.738;2023-09-19T04:02:36;96315.41;;;14.98;100.00
48041;BME280;33815;48.386;11.738;2023-09-19T04:05:03;96315.75;;;14.95;100.00
48041;BME280;33815;48.386;11.738;2023-09-19T04:07:28;96315.72;;;14.88;100.00
48041;BME280;33815;48.386;11.738;2023-09-19T04:09:54;96310.28;;;14.90;100.00
48041;BME280;33815;48.386;11.738;2023-09-19T04:12:20;96315.94;;;14.94;100.00
48041;BME280;33815;48.386;11.738;2023-09-19T04:14:45;96315.72;;;14.88;100.00
48041;BME280;33815;48.386;11.738;2023-09-19T04:17:10;96308.19;;;14.85;100.00
48041;BME280;33815;48.386;11.738;2023-09-19T04:19:36;96327.28;;;14.94;100.00
48041;BME280;33815;48.386;11.738;2023-09-19T04:22:01;96308.44;;;14.90;100.00
48041;BME280;33815;48.386;11.738;2023-09-19T04:24:28;96327.81;;;14.89;100.00
48041;BME280;33815;48.386;11.738;2023-09-19T04:26:53;96333.50;;;14.93;100.00
48041;BME280;33815;48.386;11.738;2023-09-19T04:29:18;96342.00;;;14.95;100.00
48041;BME280;33815;48.386;11.738;2023-09-19T04:31:44;96342.00;;;14.95;100.00
48041;BME280;33815;48.386;11.738;2023-09-19T04:34:11;96331.97;;;14.84;100.00
48041;BME280;33815;48.386;11.738;2023-09-19T04:36:39;96346.25;;;14.96;100.00
48041;BME280;33815;48.386;11.738;2023-09-19T04:39:05;96344.28;;;14.98;100.00
48041;BME280;33815;48.386;11.738;2023-09-19T04:41:30;96353.03;;;15.05;100.00
48041;BME280;33815;48.386;11.738;2023-09-19T04:43:55;96351.22;;;15.06;100.00
48041;BME280;33815;48.386;11.738;2023-09-19T04:46:21;96358.38;;;15.12;100.00
48041;BME280;33815;48.386;11.738;2023-09-19T04:48:46;96353.56;;;15.16;100.00
48041;BME280;33815;48.386;11.738;2023-09-19T04:51:11;96358.88;;;15.22;100.00
48041;BME280;33815;48.386;11.738;2023-09-19T04:53:37;96357.91;;;15.23;100.00
48041;BME280;33815;48.386;11.738;2023-09-19T04:56:02;96352.66;;;15.23;100.00
48041;BME280;33815;48.386;11.738;2023-09-19T04:58:28;96361.59;;;15.29;100.00
48041;BME280;33815;48.386;11.738;2023-09-19T05:00:54;96369.66;;;15.28;100.00
48041;BME280;33815;48.386;11.738;2023-09-19T05:03:19;96357.25;;;15.21;100.00
48041;BME280;33815;48.386;11.738;2023-09-19T05:05:45;96359.50;;;15.24;100.00
48041;BME280;33815;48.386;11.738;2023-09-19T05:08:10;96365.66;;;15.32;100.00
48041;BME280;33815;48.386;11.738;2023-09-19T05:10:36;96372.78;;;15.38;100.00
48041;BME280;33815;48.386;11.738;2023-09-19T05:13:04;96375.78;;;15.35;100.00
48041;BME280;33815;48.386;11.738;2023-09-19T05:15:30;96377.53;;;15.28;100.00
48041;BME280;33815;48.386;11.738;2023-09-19T05:17:56;96379.91;;;15.44;100.00
48041;BME280;33815;48.386;11.738;2023-09-19T05:20:21;96376.19;;;15.32;100.00
48041;BME280;33815;48.386;11.738;2023-09-19T05:23:04;96385.53;;;15.41;100.00
48041;BME280;33815;48.386;11.738;2023-09-19T05:25:32;96371.53;;;15.34;100.00
48041;BME280;33815;48.386;11.738;2023-09-19T05:28:02;96392.69;;;15.47;100.00
48041;BME280;33815;48.386;11.738;2023-09-19T05:30:28;96397.13;;;15.47;100.00
48041;BME280;33815;48.386;11.738;2023-09-19T05:32:54;96387.47;;;15.32;100.00
48041;BME280;33815;48.386;11.738;2023-09-19T05:35:20;96378.06;;;15.23;100.00
48041;BME280;33815;48.386;11.738;2023-09-19T05:37:47;96390.47;;;15.29;100.00
48041;BME280;33815;48.386;11.738;2023-09-19T05:40:14;96399.53;;;15.27;100.00
48041;BME280;33815;48.386;11.738;2023-09-19T05:42:41;96402.97;;;15.27;100.00
48041;BME280;33815;48.386;11.738;2023-09-19T05:45:06;96390.91;;;15.33;100.00
48041;BME280;33815;48.386;11.738;2023-09-19T05:47:32;96401.94;;;15.43;100.00
48041;BME280;33815;48.386;11.738;2023-09-19T05:49:57;96407.44;;;15.48;100.00
48041;BME280;33815;48.386;11.738;2023-09-19T05:52:24;96402.66;;;15.37;100.00
48041;BME280;33815;48.386;11.738;2023-09-19T05:54:49;96401.13;;;15.42;100.00
48041;BME280;33815;48.386;11.738;2023-09-19T05:57:14;96409.00;;;15.42;100.00
48041;BME280;33815;48.386;11.738;2023-09-19T05:59:40;96400.41;;;15.34;100.00
48041;BME280;33815;48.386;11.738;2023-09-19T06:02:07;96416.44;;;15.39;100.00
48041;BME280;33815;48.386;11.738;2023-09-19T06:04:34;96407.72;;;15.38;100.00
48041;BME280;33815;48.386;11.738;2023-09-19T06:07:00;96417.75;;;15.50;100.00
48041;BME280;33815;48.386;11.738;2023-09-19T06:09:25;96414.59;;;15.54;100.00
48041;BME280;33815;48.386;11.738;2023-09-19T06:11:53;96410.78;;;15.57;100.00
48041;BME280;33815;48.386;11.738;2023-09-19T06:14:18;96414.03;;;15.59;100.00
48041;BME280;33815;48.386;11.738;2023-09-19T06:16:44;96415.19;;;15.71;100.00
48041;BME280;33815;48.386;11.738;2023-09-19T06:19:09;96415.78;;;15.73;100.00
48041;BME280;33815;48.386;11.738;2023-09-19T06:21:35;96423.47;;;15.75;100.00
48041;BME280;33815;48.386;11.738;2023-09-19T06:24:01;96420.97;;;15.67;100.00
48041;BME280;33815;48.386;11.738;2023-09-19T06:26:26;96420.97;;;15.67;100.00
48041;BME280;33815;48.386;11.738;2023-09-19T06:28:52;96427.91;;;15.53;100.00
48041;BME280;33815;48.386;11.738;2023-09-19T06:31:17;96419.88;;;15.39;100.00
48041;BME280;33815;48.386;11.738;2023-09-19T06:33:43;96427.47;;;15.49;100.00
48041;BME280;33815;48.386;11.738;2023-09-19T06:36:08;96431.84;;;15.64;100.00
48041;BME280;33815;48.386;11.738;2023-09-19T06:38:34;96432.53;;;15.87;100.00
48041;BME280;33815;48.386;11.738;2023-09-19T06:41:00;96440.66;;;16.14;100.00
48041;BME280;33815;48.386;11.738;2023-09-19T06:43:26;96449.75;;;16.12;100.00
48041;BME280;33815;48.386;11.738;2023-09-19T06:45:53;96438.81;;;16.08;100.00
48041;BME280;33815;48.386;11.738;2023-09-19T06:48:20;96449.25;;;16.01;100.00
48041;BME280;33815;48.386;11.738;2023-09-19T06:50:46;96447.56;;;16.15;100.00
48041;BME280;33815;48.386;11.738;2023-09-19T06:53:13;96451.06;;;16.22;100.00
48041;BME280;33815;48.386;11.738;2023-09-19T06:55:38;96439.75;;;16.22;100.00
48041;BME280;33815;48.386;11.738;2023-09-19T06:58:04;96445.66;;;16.31;100.00
48041;BME280;33815;48.386;11.738;2023-09-19T07:00:31;96440.22;;;16.32;100.00
48041;BME280;33815;48.386;11.738;2023-09-19T07:03:02;96458.44;;;16.55;100.00
48041;BME280;33815;48.386;11.738;2023-09-19T07:05:33;96451.81;;;16.66;100.00
48041;BME280;33815;48.386;11.738;2023-09-19T07:08:01;96453.94;;;16.84;100.00
48041;BME280;33815;48.386;11.738;2023-09-19T07:10:27;96452.53;;;17.10;100.00
48041;BME280;33815;48.386;11.738;2023-09-19T07:13:03;96470.50;;;17.41;100.00
48041;BME280;33815;48.386;11.738;2023-09-19T07:15:32;96470.81;;;17.73;100.00
48041;BME280;33815;48.386;11.738;2023-09-19T07:18:00;96471.31;;;17.97;100.00
48041;BME280;33815;48.386;11.738;2023-09-19T07:20:26;96463.78;;;17.87;100.00
48041;BME280;33815;48.386;11.738;2023-09-19T07:22:52;96476.00;;;18.08;100.00
48041;BME280;33815;48.386;11.738;2023-09-19T07:25:20;96459.75;;;17.91;100.00
48041;BME280;33815;48.386;11.738;2023-09-19T07:27:45;96470.91;;;17.93;100.00
48041;BME280;33815;48.386;11.738;2023-09-19T07:30:11;96455.69;;;18.02;100.00
48041;BME280;33815;48.386;11.738;2023-09-19T07:32:37;96476.38;;;17.92;100.00
48041;BME280;33815;48.386;11.738;2023-09-19T07:35:03;96457.41;;;17.68;100.00
48041;BME280;33815;48.386;11.738;2023-09-19T07:37:30;96467.16;;;17.74;100.00
48041;BME280;33815;48.386;11.738;2023-09-19T07:39:58;96470.03;;;17.79;100.00
48041;BME280;33815;48.386;11.738;2023-09-19T07:42:24;96463.94;;;17.79;100.00
48041;BME280;33815;48.386;11.738;2023-09-19T07:44:49;96472.63;;;17.73;100.00
48041;BME280;33815;48.386;11.738;2023-09-19T07:47:16;96472.41;;;17.61;100.00
48041;BME280;33815;48.386;11.738;2023-09-19T07:49:41;96459.53;;;17.38;100.00
48041;BME280;33815;48.386;11.738;2023-09-19T07:52:08;96484.81;;;17.74;100.00
48041;BME280;33815;48.386;11.738;2023-09-19T07:54:34;96477.81;;;18.08;100.00
48041;BME280;33815;48.386;11.738;2023-09-19T07:57:01;96482.75;;;18.64;100.00
48041;BME280;33815;48.386;11.738;2023-09-19T07:59:26;96488.63;;;18.66;100.00
48041;BME280;33815;48.386;11.738;2023-09-19T08:01:51;96493.28;;;18.51;100.00
48041;BME280;33815;48.386;11.738;2023-09-19T08:04:17;96487.19;;;18.17;100.00
48041;BME280;33815;48.386;11.738;2023-09-19T08:06:44;96489.16;;;17.95;100.00
48041;BME280;33815;48.386;11.738;2023-09-19T08:09:09;96496.09;;;18.03;100.00
48041;BME280;33815;48.386;11.738;2023-09-19T08:11:36;96492.22;;;18.12;100.00
48041;BME280;33815;48.386;11.738;2023-09-19T08:14:01;96485.06;;;17.86;100.00
48041;BME280;33815;48.386;11.738;2023-09-19T08:16:26;96492.94;;;17.79;100.00
48041;BME280;33815;48.386;11.738;2023-09-19T08:18:52;96504.38;;;18.00;100.00
48041;BME280;33815;48.386;11.738;2023-09-19T08:21:19;96495.72;;;18.32;100.00
48041;BME280;33815;48.386;11.738;2023-09-19T08:23:45;96502.22;;;18.50;100.00
48041;BME280;33815;48.386;11.738;2023-09-19T08:26:10;96480.53;;;18.61;100.00
48041;BME280;33815;48.386;11.738;2023-09-19T08:28:36;96497.97;;;18.76;100.00
48041;BME280;33815;48.386;11.738;2023-09-19T08:31:03;96497.53;;;19.19;100.00
48041;BME280;33815;48.386;11.738;2023-09-19T08:33:36;96497.47;;;19.46;98.78
48041;BME280;33815;48.386;11.738;2023-09-19T08:36:02;96498.25;;;19.53;97.41
48041;BME280;33815;48.386;11.738;2023-09-19T08:38:32;96507.69;;;19.22;98.83
48041;BME280;33815;48.386;11.738;2023-09-19T08:40:59;96509.75;;;19.07;97.02
48041;BME280;33815;48.386;11.738;2023-09-19T08:43:25;96506.91;;;19.15;99.61
48041;BME280;33815;48.386;11.738;2023-09-19T08:46:03;96505.41;;;19.46;96.13
48041;BME280;33815;48.386;11.738;2023-09-19T08:48:34;96490.41;;;19.33;94.65
48041;BME280;33815;48.386;11.738;2023-09-19T08:51:12;96499.50;;;19.37;95.32
48041;BME280;33815;48.386;11.738;2023-09-19T08:53:54;96504.84;;;19.30;92.46
48041;BME280;33815;48.386;11.738;2023-09-19T08:56:24;96493.63;;;19.28;98.38
48041;BME280;33815;48.386;11.738;2023-09-19T08:58:57;96501.22;;;19.70;93.89
48041;BME280;33815;48.386;11.738;2023-09-19T09:01:29;96496.28;;;19.87;91.04
48041;BME280;33815;48.386;11.738;2023-09-19T09:03:57;96512.47;;;20.04;89.61
48041;BME280;33815;48.386;11.738;2023-09-19T09:06:24;96493.16;;;20.03;88.90
48041;BME280;33815;48.386;11.738;2023-09-19T09:08:50;96506.00;;;20.32;90.04
48041;BME280;33815;48.386;11.738;2023-09-19T09:11:16;96509.53;;;20.26;86.21
48041;BME280;33815;48.386;11.738;2023-09-19T09:13:43;96512.34;;;20.56;85.03
48041;BME280;33815;48.386;11.738;2023-09-19T09:16:10;96491.44;;;20.98;82.89
48041;BME280;33815;48.386;11.738;2023-09-19T09:18:35;96499.06;;;21.32;84.32
48041;BME280;33815;48.386;11.738;2023-09-19T09:21:01;96498.47;;;21.48;82.30
48041;BME280;33815;48.386;11.738;2023-09-19T09:23:27;96516.34;;;21.60;80.08
48041;BME280;33815;48.386;11.738;2023-09-19T09:25:55;96497.94;;;21.95;78.99
48041;BME280;33815;48.386;11.738;2023-09-19T09:28:25;96498.00;;;22.19;76.80
48041;BME280;33815;48.386;11.738;2023-09-19T09:30:51;96502.91;;;22.22;77.73
48041;BME280;33815;48.386;11.738;2023-09-19T09:33:17;96511.41;;;22.12;73.57
48041;BME280;33815;48.386;11.738;2023-09-19T09:38:21;96502.09;;;21.35;75.92
48041;BME280;33815;48.386;11.738;2023-09-19T09:40:52;96507.53;;;21.22;78.36
48041;BME280;33815;48.386;11.738;2023-09-19T09:43:37;96508.19;;;21.36;76.81
48041;BME280;33815;48.386;11.738;2023-09-19T09:46:17;96495.16;;;20.97;77.78
48041;BME280;33815;48.386;11.738;2023-09-19T09:48:46;96506.78;;;20.64;80.09
48041;BME280;33815;48.386;11.738;2023-09-19T09:51:32;96512.38;;;20.24;86.51
48041;BME280;33815;48.386;11.738;2023-09-19T09:54:18;96505.94;;;19.61;92.95
48041;BME280;33815;48.386;11.738;2023-09-19T09:56:59;96505.72;;;19.69;98.47
48041;BME280;33815;48.386;11.738;2023-09-19T10:02:16;96507.28;;;20.23;90.52
48041;BME280;33815;48.386;11.738;2023-09-19T10:04:49;96497.94;;;19.88;92.13
48041;BME280;33815;48.386;11.738;2023-09-19T10:07:25;96508.38;;;19.63;88.06
48041;BME280;33815;48.386;11.738;2023-09-19T10:09:51;96503.31;;;19.61;90.29
48041;BME280;33815;48.386;11.738;2023-09-19T10:12:18;96511.59;;;19.72;90.06
48041;BME280;33815;48.386;11.738;2023-09-19T10:14:46;96509.38;;;19.68;94.94
48041;BME280;33815;48.386;11.738;2023-09-19T10:17:14;96517.00;;;19.97;88.39
48041;BME280;33815;48.386;11.738;2023-09-19T10:19:55;96515.03;;;20.24;88.25
48041;BME280;33815;48.386;11.738;2023-09-19T10:22:28;96510.66;;;20.36;88.31
48041;BME280;33815;48.386;11.738;2023-09-19T10:24:56;96517.75;;;20.43;85.35
48041;BME280;33815;48.386;11.738;2023-09-19T10:27:26;96508.91;;;20.24;85.08
48041;BME280;33815;48.386;11.738;2023-09-19T10:29:52;96524.81;;;20.17;87.31
48041;BME280;33815;48.386;11.738;2023-09-19T10:32:22;96518.38;;;20.06;85.67
48041;BME280;33815;48.386;11.738;2023-09-19T10:34:49;96530.06;;;20.30;83.92
48041;BME280;33815;48.386;11.738;2023-09-19T10:37:16;96538.44;;;20.59;82.27
48041;BME280;33815;48.386;11.738;2023-09-19T10:39:46;96536.13;;;20.63;78.34
48041;BME280;33815;48.386;11.738;2023-09-19T10:42:18;96546.31;;;19.95;85.23
48041;BME280;33815;48.386;11.738;2023-09-19T10:44:45;96562.38;;;19.02;94.53
48041;BME280;33815;48.386;11.738;2023-09-19T10:47:12;96567.63;;;18.61;100.00
48041;BME280;33815;48.386;11.738;2023-09-19T10:49:45;96562.22;;;18.08;100.00
48041;BME280;33815;48.386;11.738;2023-09-19T10:52:15;96573.16;;;17.63;100.00
48041;BME280;33815;48.386;11.738;2023-09-19T10:54:47;96574.44;;;17.39;100.00
48041;BME280;33815;48.386;11.738;2023-09-19T10:57:21;96561.00;;;17.27;100.00
48041;BME280;33815;48.386;11.738;2023-09-19T11:00:05;96562.78;;;17.20;100.00
48041;BME280;33815;48.386;11.738;2023-09-19T11:05:35;96562.13;;;17.46;100.00
48041;BME280;33815;48.386;11.738;2023-09-19T11:08:09;96565.56;;;17.88;100.00
48041;BME280;33815;48.386;11.738;2023-09-19T11:10:46;96572.41;;;18.24;100.00
48041;BME280;33815;48.386;11.738;2023-09-19T11:13:29;96572.63;;;18.23;100.00
48041;BME280;33815;48.386;11.738;2023-09-19T11:26:45;96551.97;;;19.40;100.00
48041;BME280;33815;48.386;11.738;2023-09-19T11:31:51;96529.28;;;20.23;100.00
48041;BME280;33815;48.386;11.738;2023-09-19T11:37:01;96536.97;;;20.88;88.12
48041;BME280;33815;48.386;11.738;2023-09-19T11:39:29;96533.97;;;20.85;85.34
48041;BME280;33815;48.386;11.738;2023-09-19T11:41:55;96519.47;;;20.87;84.29
48041;BME280;33815;48.386;11.738;2023-09-19T11:44:32;96539.34;;;20.97;83.05
48041;BME280;33815;48.386;11.738;2023-09-19T11:47:04;96542.44;;;20.94;83.34
48041;BME280;33815;48.386;11.738;2023-09-19T11:49:32;96534.88;;;20.97;85.07
48041;BME280;33815;48.386;11.738;2023-09-19T11:51:59;96538.16;;;21.18;83.38
48041;BME280;33815;48.386;11.738;2023-09-19T11:54:27;96524.31;;;21.34;79.95
48041;BME280;33815;48.386;11.738;2023-09-19T11:56:57;96533.66;;;21.62;84.84
48041;BME280;33815;48.386;11.738;2023-09-19T11:59:27;96518.53;;;22.12;78.38
48041;BME280;33815;48.386;11.738;2023-09-19T12:01:57;96512.06;;;22.07;76.54
48041;BME280;33815;48.386;11.738;2023-09-19T12:04:41;96521.47;;;21.54;76.64
48041;BME280;33815;48.386;11.738;2023-09-19T12:07:09;96513.25;;;21.00;78.96
48041;BME280;33815;48.386;11.738;2023-09-19T12:09:42;96529.16;;;21.00;80.81
48041;BME280;33815;48.386;11.738;2023-09-19T12:12:23;96520.72;;;20.85;83.17
48041;BME280;33815;48.386;11.738;2023-09-19T12:14:49;96526.72;;;20.74;85.06
48041;BME280;33815;48.386;11.738;2023-09-19T12:17:15;96519.75;;;20.47;84.39
48041;BME280;33815;48.386;11.738;2023-09-19T12:19:50;96532.97;;;20.15;87.01
48041;BME280;33815;48.386;11.738;2023-09-19T12:22:16;96535.59;;;20.22;89.94
48041;BME280;33815;48.386;11.738;2023-09-19T12:24:43;96532.31;;;20.27;86.49
48041;BME280;33815;48.386;11.738;2023-09-19T12:27:09;96531.56;;;20.45;86.02
48041;BME280;33815;48.386;11.738;2023-09-19T12:29:44;96514.94;;;20.37;85.35
48041;BME280;33815;48.386;11.738;2023-09-19T12:32:10;96520.56;;;20.48;85.04
48041;BME280;33815;48.386;11.738;2023-09-19T12:34:36;96523.16;;;20.54;85.42
48041;BME280;33815;48.386;11.738;2023-09-19T12:37:14;96521.03;;;20.70;84.26
48041;BME280;33815;48.386;11.738;2023-09-19T12:39:48;96514.81;;;20.83;83.53
48041;BME280;33815;48.386;11.738;2023-09-19T12:42:16;96522.66;;;20.96;81.43
48041;BME280;33815;48.386;11.738;2023-09-19T12:44:43;96526.28;;;21.02;81.97
48041;BME280;33815;48.386;11.738;2023-09-19T12:47:14;96532.44;;;21.39;83.68
48041;BME280;33815;48.386;11.738;2023-09-19T12:52:36;96536.75;;;21.15;83.90
48041;BME280;33815;48.386;11.738;2023-09-19T12:55:01;96520.41;;;20.75;83.13
48041;BME280;33815;48.386;11.738;2023-09-19T12:57:27;96529.94;;;20.18;84.96
48041;BME280;33815;48.386;11.738;2023-09-19T12:59:53;96540.81;;;19.97;87.61
48041;BME280;33815;48.386;11.738;2023-09-19T13:02:19;96537.69;;;19.61;90.18
48041;BME280;33815;48.386;11.738;2023-09-19T13:04:52;96531.41;;;19.49;90.12
48041;BME280;33815;48.386;11.738;2023-09-19T13:07:41;96538.13;;;19.38;90.90
48041;BME280;33815;48.386;11.738;2023-09-19T13:10:10;96528.56;;;19.44;92.14
48041;BME280;33815;48.386;11.738;2023-09-19T13:12:37;96522.38;;;19.70;89.68
48041;BME280;33815;48.386;11.738;2023-09-19T13:15:14;96528.31;;;20.11;92.44
48041;BME280;33815;48.386;11.738;2023-09-19T13:17:48;96522.59;;;21.03;80.25
48041;BME280;33815;48.386;11.738;2023-09-19T13:20:24;96505.56;;;21.36;77.56
48041;BME280;33815;48.386;11.738;2023-09-19T13:22:53;96510.72;;;21.68;77.38
48041;BME280;33815;48.386;11.738;2023-09-19T13:25:26;96504.41;;;21.99;76.71